createdAt,value
2018-12-26T00:02:01.308Z,96967.16
2018-12-26T00:04:31.186Z,96969.13
2018-12-26T00:07:01.077Z,96970.41
2018-12-26T00:09:32.077Z,96976.24
2018-12-26T00:12:42.190Z,96974.64
2018-12-26T00:15:12.286Z,96981.04
2018-12-26T00:17:44.698Z,96980.67
2018-12-26T00:20:14.579Z,96994.31
2018-12-26T00:22:44.428Z,96997.47
2018-12-26T00:25:14.351Z,96990.47
2018-12-26T00:27:44.813Z,96989.61
2018-12-26T00:30:14.775Z,96989.67
2018-12-26T00:32:45.008Z,96977.48
2018-12-26T00:35:15.257Z,96980.91
2018-12-26T00:37:45.031Z,96978.14
2018-12-26T00:40:15.330Z,96976.83
2018-12-26T00:42:45.662Z,96975.38
2018-12-26T00:45:16.363Z,96982.03
2018-12-26T00:48:26.620Z,96982.15
2018-12-26T00:50:56.881Z,96980.52
2018-12-26T00:53:26.715Z,96984.80
2018-12-26T00:55:56.546Z,96984.04
2018-12-26T00:58:26.343Z,96974.55
2018-12-26T01:00:56.101Z,96977.80
2018-12-26T01:03:25.913Z,96966.42
2018-12-26T01:05:55.691Z,96961.81
2018-12-26T01:08:25.461Z,96954.56
2018-12-26T01:10:55.395Z,96956.18
2018-12-26T01:13:25.158Z,96953.48
2018-12-26T01:15:54.918Z,96954.88
2018-12-26T01:18:24.738Z,96953.88
2018-12-26T01:20:54.620Z,96949.80
2018-12-26T01:23:24.779Z,96955.16
2018-12-26T01:25:54.628Z,96959.56
2018-12-26T01:28:24.411Z,96949.30
2018-12-26T01:30:54.290Z,96945.19
2018-12-26T01:33:24.085Z,96938.47
2018-12-26T01:35:56.099Z,96927.27
2018-12-26T01:38:25.795Z,96930.89
2018-12-26T01:40:57.326Z,96926.30
2018-12-26T01:43:27.129Z,96928.53
2018-12-26T01:45:56.903Z,96929.81
2018-12-26T01:48:26.669Z,96925.59
2018-12-26T01:50:56.415Z,96930.24
2018-12-26T01:53:26.145Z,96935.36
2018-12-26T01:55:56.409Z,96933.78
2018-12-26T01:58:26.199Z,96938.28
2018-12-26T02:00:56.341Z,96938.42
2018-12-26T02:03:26.163Z,96928.81
2018-12-26T02:05:56.336Z,96923.08
2018-12-26T02:08:26.140Z,96918.62
2018-12-26T02:10:57.712Z,96916.50
2018-12-26T02:13:27.834Z,96926.60
2018-12-26T02:15:59.880Z,96934.66
2018-12-26T02:18:29.675Z,96936.50
2018-12-26T02:21:00.132Z,96927.30
2018-12-26T02:23:29.929Z,96918.21
2018-12-26T02:26:00.206Z,96922.25
2018-12-26T02:28:30.667Z,96925.17
2018-12-26T02:31:00.461Z,96931.34
2018-12-26T02:33:30.241Z,96937.78
2018-12-26T02:36:00.470Z,96949.86
2018-12-26T02:38:30.245Z,96944.05
2018-12-26T02:41:00.371Z,96947.78
2018-12-26T02:44:10.251Z,96936.14
2018-12-26T02:46:40.453Z,96930.81
2018-12-26T02:49:11.280Z,96939.61
2018-12-26T02:51:42.015Z,96935.13
2018-12-26T02:54:12.064Z,96917.30
2018-12-26T02:56:47.744Z,96908.80
2018-12-26T02:59:13.550Z,96905.27
2018-12-26T03:01:43.950Z,96900.09
2018-12-26T03:04:13.751Z,96891.23
2018-12-26T03:06:43.592Z,96883.27
2018-12-26T03:09:13.815Z,96878.45
2018-12-26T03:11:43.727Z,96882.44
2018-12-26T03:14:13.940Z,96869.20
2018-12-26T03:16:43.779Z,96861.58
2018-12-26T03:19:13.647Z,96848.08
2018-12-26T03:21:43.801Z,96839.38
2018-12-26T03:24:13.569Z,96834.48
2018-12-26T03:29:50.113Z,96826.86
2018-12-26T03:32:19.495Z,96844.02
2018-12-26T03:34:48.878Z,96843.64
2018-12-26T03:37:18.333Z,96831.37
2018-12-26T03:39:47.710Z,96821.46
2018-12-26T03:42:17.141Z,96823.59
2018-12-26T03:44:46.801Z,96822.55
2018-12-26T03:47:55.475Z,96819.14
2018-12-26T03:50:24.963Z,96821.42
2018-12-26T03:53:33.677Z,96812.50
2018-12-26T03:56:03.065Z,96814.97
2018-12-26T03:58:32.464Z,96803.41
2018-12-26T04:01:20.885Z,96797.64
2018-12-26T04:03:50.389Z,96785.96
2018-12-26T04:06:59.109Z,96780.36
2018-12-26T04:09:28.619Z,96789.37
2018-12-26T04:11:58.064Z,96789.64
2018-12-26T04:14:27.520Z,96795.23
2018-12-26T04:16:56.916Z,96794.96
2018-12-26T04:19:26.639Z,96796.05
2018-12-26T04:21:56.125Z,96799.98
2018-12-26T04:24:25.576Z,96793.89
2018-12-26T04:26:55.021Z,96785.50
2018-12-26T04:29:28.390Z,96785.33
2018-12-26T04:31:57.826Z,96788.49
2018-12-26T04:34:27.511Z,96797.59
2018-12-26T04:37:36.242Z,96802.80
2018-12-26T04:40:06.524Z,96803.90
2018-12-26T04:42:36.212Z,96803.27
2018-12-26T04:45:06.053Z,96801.42
2018-12-26T04:47:35.451Z,96797.53
2018-12-26T04:50:06.794Z,96786.06
2018-12-26T04:52:36.535Z,96777.86
2018-12-26T04:55:06.092Z,96774.02
2018-12-26T04:57:35.422Z,96780.09
2018-12-26T05:00:05.760Z,96774.69
2018-12-26T05:02:35.132Z,96777.13
2018-12-26T05:05:04.963Z,96774.28
2018-12-26T05:07:34.642Z,96778.08
2018-12-26T05:10:43.322Z,96777.02
2018-12-26T05:13:13.232Z,96781.52
2018-12-26T05:15:44.417Z,96789.95
2018-12-26T05:18:13.705Z,96796.11
2018-12-26T05:20:43.448Z,96807.63
2018-12-26T05:23:12.907Z,96811.89
2018-12-26T05:25:42.231Z,96819.81
2018-12-26T05:28:11.444Z,96815.14
2018-12-26T05:30:40.591Z,96796.17
2018-12-26T05:33:09.804Z,96791.20
2018-12-26T05:35:38.969Z,96798.14
2018-12-26T05:38:08.155Z,96793.22
2018-12-26T05:40:37.324Z,96785.16
2018-12-26T05:43:06.795Z,96788.39
2018-12-26T05:45:35.965Z,96788.87
2018-12-26T05:48:05.151Z,96791.90
2018-12-26T05:50:34.316Z,96800.44
2018-12-26T05:53:03.510Z,96808.39
2018-12-26T05:55:32.993Z,96805.96
2018-12-26T05:58:02.185Z,96804.05
2018-12-26T06:00:31.349Z,96808.17
2018-12-26T06:03:00.785Z,96811.22
2018-12-26T06:05:29.981Z,96812.34
2018-12-26T06:07:59.162Z,96808.66
2018-12-26T06:10:28.353Z,96803.91
2018-12-26T06:12:57.521Z,96808.08
2018-12-26T06:15:26.742Z,96810.36
2018-12-26T06:17:55.909Z,96812.50
2018-12-26T06:20:25.100Z,96818.47
2018-12-26T06:22:54.262Z,96823.75
2018-12-26T06:25:23.453Z,96830.73
2018-12-26T06:27:52.631Z,96830.61
2018-12-26T06:30:22.168Z,96829.65
2018-12-26T06:32:51.367Z,96821.16
2018-12-26T06:35:20.555Z,96811.14
2018-12-26T06:37:49.721Z,96806.52
2018-12-26T06:40:18.919Z,96802.88
2018-12-26T06:42:48.089Z,96808.75
2018-12-26T06:45:17.292Z,96800.02
2018-12-26T06:47:46.543Z,96794.56
2018-12-26T06:50:15.733Z,96801.93
2018-12-26T06:52:44.900Z,96804.42
2018-12-26T06:55:14.449Z,96808.00
2018-12-26T06:57:43.627Z,96801.77
2018-12-26T07:00:12.815Z,96812.80
2018-12-26T07:02:41.979Z,96820.18
2018-12-26T07:05:11.547Z,96817.78
2018-12-26T07:07:41.049Z,96825.84
2018-12-26T07:10:10.242Z,96829.41
2018-12-26T07:12:39.758Z,96831.45
2018-12-26T07:15:09.259Z,96843.98
2018-12-26T07:17:38.431Z,96839.02
2018-12-26T07:20:07.622Z,96833.95
2018-12-26T07:22:36.789Z,96831.22
2018-12-26T07:25:06.064Z,96832.61
2018-12-26T07:27:35.232Z,96828.89
2018-12-26T07:30:04.769Z,96830.63
2018-12-26T07:32:33.960Z,96835.02
2018-12-26T07:35:03.159Z,96843.13
2018-12-26T07:37:32.333Z,96842.98
2018-12-26T07:40:01.526Z,96844.83
2018-12-26T07:42:30.752Z,96843.09
2018-12-26T07:44:59.961Z,96846.48
2018-12-26T07:47:29.126Z,96842.05
2018-12-26T07:49:58.313Z,96846.59
2018-12-26T07:52:27.482Z,96842.81
2018-12-26T07:54:56.671Z,96849.06
2018-12-26T07:57:25.836Z,96847.78
2018-12-26T07:59:55.027Z,96843.45
2018-12-26T08:02:24.523Z,96847.84
2018-12-26T08:04:53.713Z,96856.67
2018-12-26T08:07:22.880Z,96877.72
2018-12-26T08:09:52.075Z,96863.34
2018-12-26T08:12:21.237Z,96854.80
2018-12-26T08:14:50.433Z,96858.66
2018-12-26T08:17:19.602Z,96870.63
2018-12-26T08:19:48.770Z,96864.02
2018-12-26T08:22:17.965Z,96861.66
2018-12-26T08:24:47.218Z,96861.18
2018-12-26T08:27:16.411Z,96859.56
2018-12-26T08:29:45.583Z,96856.76
2018-12-26T08:32:14.773Z,96857.56
2018-12-26T08:34:43.962Z,96858.52
2018-12-26T08:37:13.498Z,96854.66
2018-12-26T08:39:42.662Z,96859.42
2018-12-26T08:42:31.053Z,96871.62
2018-12-26T08:45:00.282Z,96876.06
2018-12-26T08:47:29.417Z,96879.92
2018-12-26T08:49:58.584Z,96881.77
2018-12-26T08:52:27.777Z,96879.90
2018-12-26T08:54:56.940Z,96877.43
2018-12-26T08:57:26.423Z,96874.88
2018-12-26T08:59:55.593Z,96872.59
2018-12-26T09:02:24.794Z,96872.43
2018-12-26T09:04:53.963Z,96872.80
2018-12-26T09:07:23.149Z,96860.69
2018-12-26T09:09:52.317Z,96852.58
2018-12-26T09:12:21.585Z,96854.70
2018-12-26T09:14:50.752Z,96851.36
2018-12-26T09:17:19.938Z,96848.08
2018-12-26T09:19:49.100Z,96848.06
2018-12-26T09:22:18.295Z,96850.64
2018-12-26T09:24:47.588Z,96844.28
2018-12-26T09:27:16.781Z,96849.34
2018-12-26T09:29:45.960Z,96850.97
2018-12-26T09:32:15.331Z,96846.94
2018-12-26T09:34:44.522Z,96854.15
2018-12-26T09:37:13.705Z,96855.98
2018-12-26T09:39:42.881Z,96854.97
2018-12-26T09:42:12.363Z,96859.85
2018-12-26T09:44:41.526Z,96854.88
2018-12-26T09:47:10.720Z,96862.17
2018-12-26T09:49:39.885Z,96857.99
2018-12-26T09:52:09.080Z,96868.16
2018-12-26T09:54:38.256Z,96857.84
2018-12-26T09:57:07.419Z,96853.41
2018-12-26T09:59:36.614Z,96839.63
2018-12-26T10:02:05.781Z,96845.58
2018-12-26T10:04:34.967Z,96840.39
2018-12-26T10:07:04.480Z,96838.23
2018-12-26T10:09:33.663Z,96836.48
2018-12-26T10:12:03.167Z,96838.03
2018-12-26T10:14:32.361Z,96840.81
2018-12-26T10:17:01.536Z,96827.65
2018-12-26T10:19:30.741Z,96824.81
2018-12-26T10:21:59.902Z,96819.64
2018-12-26T10:24:29.089Z,96828.16
2018-12-26T10:26:58.260Z,96817.96
2018-12-26T10:29:27.457Z,96814.71
2018-12-26T10:31:56.958Z,96811.58
2018-12-26T10:34:26.191Z,96807.62
2018-12-26T10:36:55.387Z,96802.35
2018-12-26T10:39:24.729Z,96800.34
2018-12-26T10:41:53.946Z,96801.02
2018-12-26T10:44:23.147Z,96802.97
2018-12-26T10:46:52.429Z,96792.47
2018-12-26T10:49:21.954Z,96797.73
2018-12-26T10:51:51.124Z,96790.63
2018-12-26T10:54:20.326Z,96798.47
2018-12-26T10:56:49.491Z,96790.41
2018-12-26T10:59:18.698Z,96783.98
2018-12-26T11:01:48.245Z,96785.16
2018-12-26T11:04:17.432Z,96782.10
2018-12-26T11:06:46.620Z,96783.31
2018-12-26T11:09:16.145Z,96779.84
2018-12-26T11:11:45.345Z,96785.36
2018-12-26T11:14:14.544Z,96780.88
2018-12-26T11:16:43.721Z,96778.09
2018-12-26T11:19:12.917Z,96776.73
2018-12-26T11:21:42.176Z,96780.09
2018-12-26T11:24:11.379Z,96776.53
2018-12-26T11:26:40.550Z,96772.67
2018-12-26T11:29:18.347Z,96768.28
2018-12-26T11:31:40.900Z,96768.49
2018-12-26T11:34:10.518Z,96764.52
2018-12-26T11:36:39.786Z,96766.70
2018-12-26T11:39:08.966Z,96763.88
2018-12-26T11:41:38.565Z,96768.98
2018-12-26T11:44:07.724Z,96771.51
2018-12-26T11:46:36.933Z,96773.96
2018-12-26T11:49:06.167Z,96773.86
2018-12-26T11:51:35.423Z,96775.86
2018-12-26T11:54:04.668Z,96783.72
2018-12-26T11:56:33.882Z,96783.92
2018-12-26T11:59:04.035Z,96789.38
2018-12-26T12:01:33.605Z,96789.57
2018-12-26T12:04:21.857Z,96787.84
2018-12-26T12:06:51.435Z,96787.27
2018-12-26T12:09:20.621Z,96789.41
2018-12-26T12:11:49.854Z,96792.65
2018-12-26T12:14:19.347Z,96787.72
2018-12-26T12:16:48.546Z,96787.00
2018-12-26T12:19:17.718Z,96793.97
2018-12-26T12:21:46.915Z,96784.23
2018-12-26T12:24:16.794Z,96782.23
2018-12-26T12:26:46.008Z,96787.98
2018-12-26T12:29:15.246Z,96785.88
2018-12-26T12:31:44.754Z,96786.40
2018-12-26T12:34:13.959Z,96781.97
2018-12-26T12:36:43.167Z,96786.11
2018-12-26T12:39:12.380Z,96781.82
2018-12-26T12:41:41.622Z,96774.94
2018-12-26T12:44:10.903Z,96771.78
2018-12-26T12:46:40.116Z,96763.56
2018-12-26T12:49:09.319Z,96763.97
2018-12-26T12:51:38.518Z,96769.95
2018-12-26T12:54:07.710Z,96773.58
2018-12-26T12:56:36.906Z,96772.17
2018-12-26T12:59:06.087Z,96775.44
2018-12-26T13:01:35.281Z,96783.50
2018-12-26T13:04:04.491Z,96782.06
2018-12-26T13:06:34.032Z,96780.12
2018-12-26T13:11:42.959Z,96786.27
2018-12-26T13:14:12.217Z,96793.54
2018-12-26T13:16:41.452Z,96793.98
2018-12-26T13:19:10.637Z,96802.48
2018-12-26T13:21:39.843Z,96799.80
2018-12-26T13:24:09.040Z,96802.28
2018-12-26T13:26:38.255Z,96802.14
2018-12-26T13:29:07.444Z,96799.33
2018-12-26T13:31:36.793Z,96804.69
2018-12-26T13:34:06.030Z,96799.95
2018-12-26T13:36:35.228Z,96806.73
2018-12-26T13:41:59.187Z,96811.66
2018-12-26T13:44:28.365Z,96814.52
2018-12-26T13:46:57.582Z,96814.50
2018-12-26T13:49:26.767Z,96812.52
2018-12-26T13:51:55.948Z,96818.67
2018-12-26T13:54:44.155Z,96813.72
2018-12-26T13:57:13.332Z,96815.61
2018-12-26T13:59:42.539Z,96812.05
2018-12-26T14:02:11.735Z,96806.47
2018-12-26T14:04:40.935Z,96819.91
2018-12-26T14:07:10.126Z,96814.05
2018-12-26T14:09:39.339Z,96812.52
2018-12-26T14:12:08.552Z,96810.09
2018-12-26T14:14:37.772Z,96808.64
2018-12-26T14:17:07.275Z,96803.90
2018-12-26T14:19:36.493Z,96806.59
2018-12-26T14:22:05.690Z,96818.42
2018-12-26T14:24:34.920Z,96818.10
2018-12-26T14:27:04.111Z,96819.95
2018-12-26T14:29:33.457Z,96815.79
2018-12-26T14:32:02.625Z,96821.86
2018-12-26T14:34:32.196Z,96817.55
2018-12-26T14:37:01.403Z,96821.77
2018-12-26T14:39:31.035Z,96816.84
2018-12-26T14:42:00.252Z,96814.93
2018-12-26T14:44:29.455Z,96818.50
2018-12-26T14:46:58.965Z,96820.69
2018-12-26T14:49:28.653Z,96817.97
2018-12-26T14:51:57.883Z,96811.72
2018-12-26T14:54:27.094Z,96813.91
2018-12-26T14:56:56.304Z,96806.92
2018-12-26T14:59:26.368Z,96800.14
2018-12-26T15:01:55.894Z,96786.94
2018-12-26T15:04:25.100Z,96786.89
2018-12-26T15:06:54.904Z,96790.19
2018-12-26T15:09:24.088Z,96789.84
2018-12-26T15:11:53.305Z,96786.91
2018-12-26T15:14:23.167Z,96784.34
2018-12-26T15:16:52.349Z,96782.64
2018-12-26T15:19:21.863Z,96782.59
2018-12-26T15:21:51.044Z,96788.07
2018-12-26T15:24:20.944Z,96797.97
2018-12-26T15:26:50.121Z,96797.11
2018-12-26T15:29:19.338Z,96800.09
2018-12-26T15:31:48.524Z,96798.94
2018-12-26T15:34:17.732Z,96800.14
2018-12-26T15:36:46.930Z,96804.38
2018-12-26T15:39:16.114Z,96799.70
2018-12-26T15:41:45.346Z,96802.58
2018-12-26T15:44:14.527Z,96805.03
2018-12-26T15:46:43.765Z,96805.28
2018-12-26T15:49:12.953Z,96804.69
2018-12-26T15:51:42.511Z,96816.28
2018-12-26T15:54:11.689Z,96812.56
2018-12-26T15:56:41.489Z,96811.33
2018-12-26T15:59:10.732Z,96817.75
2018-12-26T16:01:42.055Z,96809.63
2018-12-26T16:04:11.318Z,96811.95
2018-12-26T16:06:40.581Z,96810.97
2018-12-26T16:09:09.822Z,96812.98
2018-12-26T16:11:39.484Z,96816.16
2018-12-26T16:14:08.718Z,96809.92
2018-12-26T16:16:37.932Z,96809.20
2018-12-26T16:19:07.160Z,96813.41
2018-12-26T16:21:36.366Z,96818.06
2018-12-26T16:24:05.673Z,96812.07
2018-12-26T16:26:34.872Z,96814.47
2018-12-26T16:29:04.288Z,96805.42
2018-12-26T16:31:33.512Z,96807.67
2018-12-26T16:34:02.764Z,96805.83
2018-12-26T16:36:32.968Z,96815.96
2018-12-26T16:39:02.224Z,96813.40
2018-12-26T16:41:31.437Z,96806.14
2018-12-26T16:44:00.673Z,96815.48
2018-12-26T16:46:29.941Z,96808.63
2018-12-26T16:49:00.283Z,96808.39
2018-12-26T16:51:29.513Z,96798.81
2018-12-26T16:53:59.249Z,96803.02
2018-12-26T16:56:28.591Z,96804.23
2018-12-26T16:58:57.867Z,96813.04
2018-12-26T17:01:27.086Z,96818.53
2018-12-26T17:03:56.416Z,96811.20
2018-12-26T17:06:25.661Z,96811.70
2018-12-26T17:08:55.330Z,96809.63
2018-12-26T17:11:24.539Z,96804.62
2018-12-26T17:13:53.722Z,96804.67
2018-12-26T17:16:23.021Z,96809.33
2018-12-26T17:18:52.330Z,96802.97
2018-12-26T17:21:21.610Z,96800.89
2018-12-26T17:23:50.845Z,96805.83
2018-12-26T17:26:21.194Z,96807.55
2018-12-26T17:31:59.077Z,96800.14
2018-12-26T17:34:28.283Z,96804.73
2018-12-26T17:36:57.508Z,96806.27
2018-12-26T17:39:26.721Z,96810.23
2018-12-26T17:41:55.962Z,96809.02
2018-12-26T17:44:26.336Z,96816.04
2018-12-26T17:46:55.553Z,96816.50
2018-12-26T17:49:24.740Z,96823.84
2018-12-26T17:51:53.958Z,96819.56
2018-12-26T17:55:01.219Z,96826.58
2018-12-26T17:57:35.299Z,96817.71
2018-12-26T18:00:42.629Z,96831.17
2018-12-26T18:03:12.134Z,96824.94
2018-12-26T18:05:41.670Z,96818.75
2018-12-26T18:08:10.889Z,96815.97
2018-12-26T18:10:40.135Z,96809.97
2018-12-26T18:13:09.347Z,96811.50
2018-12-26T18:15:38.535Z,96806.61
2018-12-26T18:18:08.633Z,96807.22
2018-12-26T18:20:37.821Z,96805.94
2018-12-26T18:23:07.033Z,96803.58
2018-12-26T18:25:36.602Z,96805.50
2018-12-26T18:28:05.808Z,96803.69
2018-12-26T18:30:35.130Z,96795.46
2018-12-26T18:33:04.360Z,96795.53
2018-12-26T18:35:34.496Z,96791.73
2018-12-26T18:38:03.768Z,96797.22
2018-12-26T18:40:33.192Z,96793.17
2018-12-26T18:43:04.357Z,96798.04
2018-12-26T18:45:33.604Z,96786.87
2018-12-26T18:48:03.152Z,96797.66
2018-12-26T18:50:33.596Z,96803.21
2018-12-26T18:53:02.810Z,96803.21
2018-12-26T18:55:32.476Z,96802.89
2018-12-26T18:58:01.693Z,96807.11
2018-12-26T19:00:30.879Z,96808.70
2018-12-26T19:03:00.101Z,96806.19
2018-12-26T19:05:29.286Z,96807.42
2018-12-26T19:07:58.593Z,96801.30
2018-12-26T19:10:27.796Z,96810.68
2018-12-26T19:12:56.975Z,96811.48
2018-12-26T19:15:26.468Z,96813.41
2018-12-26T19:17:55.674Z,96809.08
2018-12-26T19:20:25.162Z,96809.03
2018-12-26T19:23:13.610Z,96813.98
2018-12-26T19:25:42.835Z,96813.93
2018-12-26T19:28:12.362Z,96809.39
2018-12-26T19:30:41.582Z,96808.59
2018-12-26T19:33:11.134Z,96809.97
2018-12-26T19:35:40.338Z,96806.09
2018-12-26T19:38:09.687Z,96813.48
2018-12-26T19:40:38.898Z,96817.00
2018-12-26T19:43:08.639Z,96819.14
2018-12-26T19:45:40.127Z,96816.52
2018-12-26T19:48:09.087Z,96815.52
2018-12-26T19:53:15.036Z,96807.29
2018-12-26T19:55:45.569Z,96803.31
2018-12-26T19:58:14.755Z,96805.70
2018-12-26T20:00:44.107Z,96797.55
2018-12-26T20:03:13.322Z,96803.33
2018-12-26T20:05:42.670Z,96790.58
2018-12-26T20:08:14.340Z,96787.59
2018-12-26T20:10:43.815Z,96784.66
2018-12-26T20:13:13.048Z,96785.84
2018-12-26T20:15:42.319Z,96794.61
2018-12-26T20:18:11.620Z,96788.36
2018-12-26T20:20:41.340Z,96778.87
2018-12-26T20:23:11.032Z,96779.25
2018-12-26T20:25:40.295Z,96777.83
2018-12-26T20:31:05.539Z,96786.37
2018-12-26T20:33:34.831Z,96783.48
2018-12-26T20:36:04.149Z,96781.49
2018-12-26T20:38:33.457Z,96785.09
2018-12-26T20:41:02.748Z,96783.29
2018-12-26T20:43:32.602Z,96783.23
2018-12-26T20:46:21.301Z,96784.37
2018-12-26T20:51:40.504Z,96788.44
2018-12-26T20:54:09.910Z,96784.13
2018-12-26T20:56:39.926Z,96782.34
2018-12-26T20:59:09.125Z,96781.95
2018-12-26T21:01:38.591Z,96773.20
2018-12-26T21:04:07.802Z,96782.91
2018-12-26T21:06:51.204Z,96785.08
2018-12-26T21:09:08.449Z,96794.12
2018-12-26T21:11:38.197Z,96798.20
2018-12-26T21:14:07.688Z,96802.23
2018-12-26T21:16:55.966Z,96799.59
2018-12-26T21:19:27.333Z,96794.70
2018-12-26T21:21:56.684Z,96789.30
2018-12-26T21:24:25.911Z,96789.24
2018-12-26T21:26:55.245Z,96793.56
2018-12-26T21:29:24.482Z,96792.95
2018-12-26T21:31:53.901Z,96790.63
2018-12-26T21:34:23.269Z,96784.18
2018-12-26T21:36:52.563Z,96780.81
2018-12-26T21:39:21.967Z,96782.61
2018-12-26T21:41:51.225Z,96783.98
2018-12-26T21:44:20.474Z,96785.88
2018-12-26T21:46:49.701Z,96778.25
2018-12-26T21:49:18.897Z,96785.88
2018-12-26T21:51:48.115Z,96788.02
2018-12-26T21:54:17.288Z,96783.60
2018-12-26T21:56:46.888Z,96777.48
2018-12-26T21:59:16.468Z,96785.44
2018-12-26T22:01:45.661Z,96783.13
2018-12-26T22:04:14.861Z,96781.47
2018-12-26T22:06:44.407Z,96778.20
2018-12-26T22:09:13.628Z,96778.48
2018-12-26T22:12:01.808Z,96773.04
2018-12-26T22:14:31.347Z,96777.35
2018-12-26T22:17:00.544Z,96781.66
2018-12-26T22:19:29.767Z,96783.53
2018-12-26T22:21:58.952Z,96783.98
2018-12-26T22:24:47.159Z,96777.65
2018-12-26T22:27:16.335Z,96780.54
2018-12-26T22:29:45.888Z,96766.75
2018-12-26T22:32:15.091Z,96771.77
2018-12-26T22:34:44.297Z,96764.72
2018-12-26T22:37:13.510Z,96762.91
2018-12-26T22:39:42.684Z,96759.38
2018-12-26T22:42:11.890Z,96758.48
2018-12-26T22:44:41.077Z,96760.24
2018-12-26T22:47:10.285Z,96756.61
2018-12-26T22:49:39.461Z,96752.67
2018-12-26T22:52:08.647Z,96756.94
2018-12-26T22:54:37.858Z,96756.27
2018-12-26T22:57:07.075Z,96749.61
2018-12-26T22:59:36.285Z,96756.09
2018-12-26T23:02:05.539Z,96748.75
2018-12-26T23:04:34.772Z,96743.54
2018-12-26T23:07:03.955Z,96734.86
2018-12-26T23:09:33.134Z,96737.05
2018-12-26T23:12:02.641Z,96727.59
2018-12-26T23:14:31.833Z,96724.52
2018-12-26T23:17:01.046Z,96724.56
2018-12-26T23:19:30.226Z,96718.86
2018-12-26T23:21:59.410Z,96708.52
2018-12-26T23:24:28.610Z,96711.89
2018-12-26T23:26:57.790Z,96711.31
2018-12-26T23:29:26.991Z,96713.16
2018-12-26T23:31:56.172Z,96708.52
2018-12-26T23:34:25.458Z,96710.02
2018-12-26T23:36:54.665Z,96706.45
2018-12-26T23:39:23.865Z,96702.70
2018-12-26T23:41:53.439Z,96702.16
2018-12-26T23:44:22.612Z,96697.81
2018-12-26T23:46:51.817Z,96691.70
2018-12-26T23:49:21.007Z,96696.02
2018-12-26T23:51:50.191Z,96690.56
2018-12-26T23:54:19.378Z,96690.14
2018-12-26T23:56:48.586Z,96686.64
2018-12-26T23:59:17.792Z,96687.92
